createdAt,value
2023-06-05T00:03:41.208Z,64.41
2023-06-05T00:06:09.828Z,64.49
2023-06-05T00:08:38.102Z,64.46
2023-06-05T00:11:06.937Z,64.52
2023-06-05T00:13:35.438Z,64.65
2023-06-05T00:16:04.075Z,64.62
2023-06-05T00:18:33.121Z,64.65
2023-06-05T00:21:01.359Z,64.77
2023-06-05T00:23:29.569Z,64.81
2023-06-05T00:25:59.117Z,64.83
2023-06-05T00:28:27.347Z,64.93
2023-06-05T00:30:55.501Z,64.91
2023-06-05T00:33:23.766Z,64.89
2023-06-05T00:35:51.857Z,64.90
2023-06-05T00:38:19.980Z,64.88
2023-06-05T00:40:48.350Z,64.97
2023-06-05T00:43:17.665Z,64.98
2023-06-05T00:45:46.034Z,64.98
2023-06-05T00:48:15.192Z,65.01
2023-06-05T00:50:43.720Z,64.97
2023-06-05T00:53:13.257Z,64.99
2023-06-05T00:55:41.603Z,65.00
2023-06-05T00:58:11.019Z,64.99
2023-06-05T01:00:39.335Z,65.03
2023-06-05T01:03:08.307Z,64.98
2023-06-05T01:05:37.195Z,65.01
2023-06-05T01:08:06.574Z,65.08
2023-06-05T01:10:34.777Z,65.03
2023-06-05T01:13:13.599Z,65.03
2023-06-05T01:15:42.204Z,65.05
2023-06-05T01:18:10.987Z,65.10
2023-06-05T01:20:40.743Z,65.14
2023-06-05T01:23:12.265Z,65.07
2023-06-05T01:25:40.773Z,65.06
2023-06-05T01:28:17.145Z,65.17
2023-06-05T01:31:13.109Z,65.21
2023-06-05T01:33:58.485Z,65.27
2023-06-05T01:36:27.253Z,65.25
2023-06-05T01:38:57.766Z,65.30
2023-06-05T01:41:28.091Z,65.22
2023-06-05T01:43:56.898Z,65.27
2023-06-05T01:46:25.575Z,65.36
2023-06-05T01:48:54.045Z,65.39
2023-06-05T01:51:22.747Z,65.39
2023-06-05T01:53:50.927Z,65.31
2023-06-05T01:56:19.306Z,65.35
2023-06-05T01:58:48.597Z,65.48
2023-06-05T02:01:17.601Z,65.52
2023-06-05T02:03:46.573Z,65.31
2023-06-05T02:06:15.928Z,65.48
2023-06-05T02:08:44.584Z,65.48
2023-06-05T02:11:12.943Z,65.51
2023-06-05T02:13:41.587Z,65.58
2023-06-05T02:16:12.628Z,65.57
2023-06-05T02:18:41.435Z,65.53
2023-06-05T02:21:09.669Z,65.59
2023-06-05T02:23:38.609Z,65.58
2023-06-05T02:26:07.135Z,65.57
2023-06-05T02:28:35.384Z,65.62
2023-06-05T02:31:03.595Z,65.67
2023-06-05T02:33:31.812Z,65.68
2023-06-05T02:36:00.213Z,65.72
2023-06-05T02:38:28.653Z,65.80
2023-06-05T02:40:57.247Z,65.86
2023-06-05T02:43:25.408Z,65.87
2023-06-05T02:45:53.729Z,65.92
2023-06-05T02:48:22.252Z,65.94
2023-06-05T02:50:51.123Z,66.04
2023-06-05T02:53:20.432Z,66.02
2023-06-05T02:55:48.794Z,66.03
2023-06-05T02:58:17.152Z,66.10
2023-06-05T03:00:45.309Z,66.13
2023-06-05T03:03:14.225Z,66.12
2023-06-05T03:05:44.335Z,66.05
2023-06-05T03:08:12.461Z,66.10
2023-06-05T03:10:40.903Z,65.99
2023-06-05T03:13:09.067Z,66.01
2023-06-05T03:15:37.504Z,66.03
2023-06-05T03:18:05.954Z,66.03
2023-06-05T03:20:34.483Z,66.09
2023-06-05T03:23:02.877Z,66.12
2023-06-05T03:25:31.273Z,66.01
2023-06-05T03:27:59.592Z,66.01
2023-06-05T03:30:28.373Z,66.03
2023-06-05T03:32:56.954Z,66.04
2023-06-05T03:35:25.148Z,65.95
2023-06-05T03:37:53.553Z,65.99
2023-06-05T03:40:21.962Z,65.98
2023-06-05T03:42:50.096Z,66.06
2023-06-05T03:45:18.543Z,66.01
2023-06-05T03:47:46.892Z,66.04
2023-06-05T03:50:15.376Z,66.02
2023-06-05T03:52:43.836Z,66.15
2023-06-05T03:55:12.180Z,66.14
2023-06-05T03:57:40.545Z,66.17
2023-06-05T04:00:09.154Z,66.24
2023-06-05T04:02:38.952Z,66.27
2023-06-05T04:05:07.920Z,66.22
2023-06-05T04:07:36.708Z,66.30
2023-06-05T04:10:07.250Z,66.44
2023-06-05T04:12:35.552Z,66.44
2023-06-05T04:15:04.094Z,66.46
2023-06-05T04:17:32.275Z,66.41
2023-06-05T04:20:00.416Z,66.46
2023-06-05T04:22:28.716Z,66.49
2023-06-05T04:24:57.098Z,66.61
2023-06-05T04:27:25.285Z,66.61
2023-06-05T04:29:53.561Z,66.60
2023-06-05T04:32:22.079Z,66.71
2023-06-05T04:34:50.372Z,66.68
2023-06-05T04:37:18.826Z,66.67
2023-06-05T04:39:47.266Z,66.66
2023-06-05T04:42:15.980Z,66.69
2023-06-05T04:44:44.842Z,66.64
2023-06-05T04:47:13.055Z,66.67
2023-06-05T04:49:41.212Z,66.69
2023-06-05T04:52:10.022Z,66.63
2023-06-05T04:54:38.577Z,66.68
2023-06-05T04:57:06.833Z,66.62
2023-06-05T04:59:35.158Z,66.57
2023-06-05T05:02:04.353Z,66.65
2023-06-05T05:04:33.906Z,66.71
2023-06-05T05:07:02.522Z,66.65
2023-06-05T05:09:34.988Z,66.66
2023-06-05T05:12:03.363Z,66.56
2023-06-05T05:14:32.452Z,66.59
2023-06-05T05:17:00.894Z,66.66
2023-06-05T05:19:29.484Z,66.74
2023-06-05T05:21:58.808Z,66.61
2023-06-05T05:24:27.910Z,66.49
2023-06-05T05:26:56.158Z,66.49
2023-06-05T05:29:24.953Z,66.46
2023-06-05T05:31:53.312Z,66.51
2023-06-05T05:34:22.449Z,66.51
2023-06-05T05:36:50.985Z,66.43
2023-06-05T05:39:19.548Z,66.43
2023-06-05T05:41:50.301Z,66.41
2023-06-05T05:44:18.546Z,66.29
2023-06-05T05:46:47.768Z,66.38
2023-06-05T05:49:15.962Z,66.33
2023-06-05T05:51:44.529Z,66.21
2023-06-05T05:54:13.078Z,66.20
2023-06-05T05:56:41.266Z,66.10
2023-06-05T05:59:09.744Z,66.06
2023-06-05T06:01:38.175Z,66.05
2023-06-05T06:04:06.519Z,65.93
2023-06-05T06:06:34.828Z,65.88
2023-06-05T06:09:03.120Z,65.91
2023-06-05T06:11:31.443Z,65.92
2023-06-05T06:13:59.550Z,65.96
2023-06-05T06:16:27.960Z,65.81
2023-06-05T06:18:58.597Z,65.73
2023-06-05T06:21:27.147Z,65.66
2023-06-05T06:23:55.957Z,65.53
2023-06-05T06:26:25.060Z,65.42
2023-06-05T06:28:53.707Z,65.35
2023-06-05T06:31:22.219Z,65.20
2023-06-05T06:33:50.507Z,65.13
2023-06-05T06:36:19.326Z,65.10
2023-06-05T06:38:47.633Z,64.85
2023-06-05T06:41:16.199Z,64.80
2023-06-05T06:43:44.674Z,64.68
2023-06-05T06:46:13.469Z,64.55
2023-06-05T06:48:41.756Z,64.52
2023-06-05T06:51:10.310Z,64.39
2023-06-05T06:53:39.410Z,64.25
2023-06-05T06:56:08.660Z,64.09
2023-06-05T06:58:37.484Z,63.96
2023-06-05T07:01:05.772Z,63.89
2023-06-05T07:03:34.849Z,63.84
2023-06-05T07:06:07.085Z,63.80
2023-06-05T07:08:35.560Z,63.72
2023-06-05T07:11:03.725Z,63.80
2023-06-05T07:13:32.002Z,63.68
2023-06-05T07:16:00.314Z,63.72
2023-06-05T07:18:29.972Z,63.72
2023-06-05T07:21:00.052Z,63.58
2023-06-05T07:23:28.381Z,63.45
2023-06-05T07:25:56.723Z,63.24
2023-06-05T07:28:25.205Z,63.18
2023-06-05T07:30:53.328Z,62.96
2023-06-05T07:33:29.927Z,62.76
2023-06-05T07:36:00.822Z,62.49
2023-06-05T07:38:29.824Z,62.48
2023-06-05T07:40:58.107Z,62.17
2023-06-05T07:43:27.328Z,62.07
2023-06-05T07:45:55.844Z,61.64
2023-06-05T07:48:24.100Z,61.51
2023-06-05T07:50:52.301Z,61.29
2023-06-05T07:53:20.537Z,61.56
2023-06-05T07:55:49.458Z,61.40
2023-06-05T07:58:17.960Z,61.69
2023-06-05T08:00:46.062Z,61.81
2023-06-05T08:03:18.027Z,61.76
2023-06-05T08:05:48.121Z,62.01
2023-06-05T08:08:16.481Z,62.12
2023-06-05T08:10:45.934Z,62.23
2023-06-05T08:13:14.204Z,62.25
2023-06-05T08:15:44.652Z,62.20
2023-06-05T08:18:13.256Z,62.00
2023-06-05T08:20:41.572Z,62.03
2023-06-05T08:23:11.608Z,62.00
2023-06-05T08:25:39.921Z,61.86
2023-06-05T08:28:08.423Z,61.69
2023-06-05T08:30:36.617Z,61.58
2023-06-05T08:33:05.533Z,61.47
2023-06-05T08:35:33.664Z,61.34
2023-06-05T08:38:01.988Z,61.35
2023-06-05T08:40:30.728Z,61.28
2023-06-05T08:43:01.757Z,61.23
2023-06-05T08:45:32.925Z,61.11
2023-06-05T08:48:02.547Z,61.12
2023-06-05T08:50:32.002Z,61.07
2023-06-05T08:53:01.463Z,60.81
2023-06-05T08:55:31.160Z,60.45
2023-06-05T08:58:00.292Z,59.83
2023-06-05T09:00:28.714Z,59.48
2023-06-05T09:02:57.116Z,59.71
2023-06-05T09:05:26.513Z,60.07
2023-06-05T09:07:55.338Z,60.14
2023-06-05T09:10:29.288Z,60.11
2023-06-05T09:13:02.473Z,59.89
2023-06-05T09:15:35.754Z,59.77
2023-06-05T09:18:10.337Z,59.47
2023-06-05T09:20:41.302Z,59.17
2023-06-05T09:23:30.260Z,58.91
2023-06-05T09:26:01.681Z,58.78
2023-06-05T09:28:30.364Z,58.63
2023-06-05T09:31:03.629Z,58.24
2023-06-05T09:33:34.907Z,57.98
2023-06-05T09:36:09.244Z,57.59
2023-06-05T09:38:40.138Z,57.30
2023-06-05T09:41:11.445Z,56.92
2023-06-05T09:43:40.446Z,56.76
2023-06-05T09:46:09.782Z,56.71
2023-06-05T09:48:43.200Z,56.64
2023-06-05T09:51:14.215Z,56.67
2023-06-05T09:53:51.304Z,56.52
2023-06-05T09:56:23.131Z,56.58
2023-06-05T09:58:53.112Z,56.71
2023-06-05T10:01:24.828Z,56.55
2023-06-05T10:04:03.018Z,56.19
2023-06-05T10:06:33.601Z,56.10
2023-06-05T10:09:03.381Z,55.84
2023-06-05T10:11:31.889Z,55.71
2023-06-05T10:14:01.217Z,55.56
2023-06-05T10:16:31.122Z,55.81
2023-06-05T10:19:00.911Z,55.85
2023-06-05T10:21:29.464Z,55.61
2023-06-05T10:24:08.080Z,55.06
2023-06-05T10:27:10.922Z,54.87
2023-06-05T10:30:07.796Z,54.80
2023-06-05T10:33:10.643Z,54.24
2023-06-05T10:36:09.624Z,54.02
2023-06-05T10:38:41.666Z,53.17
2023-06-05T10:41:10.463Z,52.92
2023-06-05T10:43:48.940Z,53.86
2023-06-05T10:46:31.111Z,53.86
2023-06-05T10:49:18.646Z,54.07
2023-06-05T10:51:51.484Z,54.11
2023-06-05T10:54:25.865Z,54.61
2023-06-05T10:56:57.203Z,54.57
2023-06-05T10:59:46.483Z,54.02
2023-06-05T11:02:17.937Z,54.54
2023-06-05T11:04:50.109Z,54.58
2023-06-05T11:07:26.599Z,54.30
2023-06-05T11:10:12.945Z,54.59
2023-06-05T11:12:45.356Z,54.40
2023-06-05T11:15:15.910Z,54.41
2023-06-05T11:17:46.971Z,54.06
2023-06-05T11:20:25.055Z,53.53
2023-06-05T11:22:56.293Z,53.38
2023-06-05T11:25:28.152Z,53.52
2023-06-05T11:28:03.970Z,53.52
2023-06-05T11:30:47.090Z,52.41
2023-06-05T11:33:20.173Z,51.70
2023-06-05T11:35:52.117Z,52.60
2023-06-05T11:38:24.085Z,52.74
2023-06-05T11:40:56.189Z,52.41
2023-06-05T11:43:25.689Z,51.81
2023-06-05T11:45:58.934Z,51.75
2023-06-05T11:48:27.534Z,50.79
2023-06-05T11:51:01.634Z,50.64
2023-06-05T11:53:32.596Z,50.70
2023-06-05T11:56:01.535Z,49.72
2023-06-05T11:58:31.699Z,49.37
2023-06-05T12:01:20.500Z,48.67
2023-06-05T12:03:50.641Z,48.68
2023-06-05T12:06:19.192Z,48.59
2023-06-05T12:08:47.438Z,48.85
2023-06-05T12:11:24.033Z,48.49
2023-06-05T12:13:57.226Z,49.05
2023-06-05T12:16:35.937Z,49.11
2023-06-05T12:19:16.568Z,49.18
2023-06-05T12:21:47.350Z,49.03
2023-06-05T12:24:16.001Z,49.20
2023-06-05T12:26:51.317Z,49.11
2023-06-05T12:29:20.348Z,48.26
2023-06-05T12:31:49.436Z,48.31
2023-06-05T12:34:17.837Z,48.82
2023-06-05T12:36:46.546Z,48.49
2023-06-05T12:39:15.096Z,48.63
2023-06-05T12:41:43.826Z,48.58
2023-06-05T12:44:12.215Z,47.63
2023-06-05T12:46:40.375Z,46.98
2023-06-05T12:49:08.670Z,47.44
2023-06-05T12:51:37.400Z,47.49
2023-06-05T12:54:06.020Z,47.32
2023-06-05T12:56:34.404Z,47.37
2023-06-05T12:59:02.996Z,47.28
2023-06-05T13:01:31.839Z,46.60
2023-06-05T13:04:00.709Z,46.35
2023-06-05T13:06:29.356Z,46.09
2023-06-05T13:08:59.367Z,46.09
2023-06-05T13:11:27.604Z,46.03
2023-06-05T13:13:56.235Z,45.60
2023-06-05T13:16:24.539Z,45.75
2023-06-05T13:18:52.733Z,45.72
2023-06-05T13:21:20.997Z,45.88
2023-06-05T13:23:49.378Z,45.87
2023-06-05T13:26:17.682Z,45.48
2023-06-05T13:28:46.268Z,45.55
2023-06-05T13:31:14.839Z,46.07
2023-06-05T13:33:43.060Z,45.80
2023-06-05T13:36:11.504Z,46.06
2023-06-05T13:38:40.019Z,46.32
2023-06-05T13:41:08.546Z,47.30
2023-06-05T13:43:36.915Z,47.24
2023-06-05T13:46:05.402Z,47.01
2023-06-05T13:48:34.325Z,46.91
2023-06-05T13:51:03.278Z,47.06
2023-06-05T13:53:32.189Z,46.92
2023-06-05T13:56:00.463Z,47.16
2023-06-05T13:58:28.985Z,46.45
2023-06-05T14:00:57.627Z,46.02
2023-06-05T14:03:26.549Z,46.19
2023-06-05T14:05:54.926Z,46.40
2023-06-05T14:08:23.061Z,46.74
2023-06-05T14:10:51.400Z,47.58
2023-06-05T14:13:19.736Z,48.15
2023-06-05T14:15:47.963Z,47.81
2023-06-05T14:18:16.221Z,47.13
2023-06-05T14:20:44.715Z,47.62
2023-06-05T14:23:12.970Z,48.18
2023-06-05T14:25:41.212Z,48.52
2023-06-05T14:28:09.575Z,48.74
2023-06-05T14:30:39.182Z,48.93
2023-06-05T14:33:08.160Z,48.74
2023-06-05T14:35:36.934Z,48.26
2023-06-05T14:38:08.100Z,48.76
2023-06-05T14:40:36.617Z,49.30
2023-06-05T14:43:05.062Z,49.49
2023-06-05T14:45:33.371Z,49.88
2023-06-05T14:48:01.659Z,49.94
2023-06-05T14:50:30.353Z,50.12
2023-06-05T14:52:59.500Z,50.40
2023-06-05T14:55:28.554Z,49.91
2023-06-05T14:57:58.890Z,50.03
2023-06-05T15:00:27.365Z,50.44
2023-06-05T15:02:55.795Z,50.60
2023-06-05T15:05:24.961Z,51.00
2023-06-05T15:07:54.410Z,51.45
2023-06-05T15:10:22.851Z,51.64
2023-06-05T15:12:50.999Z,51.61
2023-06-05T15:15:21.379Z,51.74
2023-06-05T15:17:50.822Z,51.70
2023-06-05T15:20:23.259Z,51.88
2023-06-05T15:23:11.271Z,51.99
2023-06-05T15:25:43.026Z,52.29
2023-06-05T15:28:11.708Z,52.73
2023-06-05T15:30:39.907Z,53.14
2023-06-05T15:33:08.282Z,53.08
2023-06-05T15:35:36.655Z,53.08
2023-06-05T15:38:04.846Z,53.09
2023-06-05T15:40:33.021Z,53.14
2023-06-05T15:43:06.642Z,53.18
2023-06-05T15:45:40.817Z,53.61
2023-06-05T15:48:09.614Z,53.63
2023-06-05T15:50:38.354Z,53.65
2023-06-05T15:53:07.980Z,53.49
2023-06-05T15:55:36.436Z,53.56
2023-06-05T15:58:09.588Z,53.78
2023-06-05T16:00:38.126Z,53.72
2023-06-05T16:03:06.649Z,53.66
2023-06-05T16:05:35.462Z,53.87
2023-06-05T16:08:04.116Z,54.10
2023-06-05T16:10:32.285Z,54.25
2023-06-05T16:13:00.569Z,53.93
2023-06-05T16:15:28.805Z,53.46
2023-06-05T16:17:57.160Z,53.49
2023-06-05T16:20:26.577Z,53.68
2023-06-05T16:22:55.081Z,53.70
2023-06-05T16:25:23.448Z,53.72
2023-06-05T16:27:51.703Z,53.56
2023-06-05T16:30:19.936Z,53.25
2023-06-05T16:32:48.222Z,53.48
2023-06-05T16:38:03.549Z,53.64
2023-06-05T16:40:31.804Z,53.55
2023-06-05T16:43:00.419Z,53.36
2023-06-05T16:45:28.712Z,53.24
2023-06-05T16:47:56.908Z,53.47
2023-06-05T16:50:25.109Z,53.36
2023-06-05T16:52:54.315Z,53.63
2023-06-05T16:55:22.470Z,53.74
2023-06-05T16:57:50.665Z,53.94
2023-06-05T17:00:19.012Z,54.00
2023-06-05T17:02:47.317Z,54.26
2023-06-05T17:05:16.051Z,54.31
2023-06-05T17:07:45.160Z,54.40
2023-06-05T17:10:13.706Z,54.46
2023-06-05T17:12:42.069Z,54.47
2023-06-05T17:15:12.892Z,54.50
2023-06-05T17:17:41.678Z,54.73
2023-06-05T17:20:10.868Z,54.67
2023-06-05T17:22:39.503Z,54.84
2023-06-05T17:25:08.108Z,54.88
2023-06-05T17:27:38.303Z,54.79
2023-06-05T17:30:08.318Z,54.73
2023-06-05T17:32:36.688Z,54.59
2023-06-05T17:35:06.207Z,54.28
2023-06-05T17:37:35.773Z,54.41
2023-06-05T17:40:04.367Z,54.58
2023-06-05T17:42:33.156Z,54.91
2023-06-05T17:45:01.418Z,54.91
2023-06-05T17:47:29.778Z,55.30
2023-06-05T17:49:58.113Z,55.15
2023-06-05T17:52:27.002Z,55.12
2023-06-05T17:54:55.248Z,55.08
2023-06-05T17:57:23.573Z,55.13
2023-06-05T17:59:52.348Z,55.50
2023-06-05T18:02:20.988Z,55.68
2023-06-05T18:04:49.404Z,55.47
2023-06-05T18:07:17.892Z,55.40
2023-06-05T18:09:46.236Z,55.59
2023-06-05T18:12:14.405Z,55.86
2023-06-05T18:14:43.005Z,56.23
2023-06-05T18:17:11.893Z,56.46
2023-06-05T18:19:40.031Z,56.47
2023-06-05T18:22:08.398Z,56.44
2023-06-05T18:24:36.646Z,56.70
2023-06-05T18:27:05.531Z,56.82
2023-06-05T18:29:34.674Z,56.97
2023-06-05T18:32:03.294Z,57.32
2023-06-05T18:34:32.116Z,57.33
2023-06-05T18:37:00.543Z,57.28
2023-06-05T18:39:29.299Z,57.38
2023-06-05T18:41:57.477Z,57.60
2023-06-05T18:44:26.240Z,57.84
2023-06-05T18:46:54.764Z,58.02
2023-06-05T18:49:23.039Z,57.73
2023-06-05T18:51:51.238Z,58.20
2023-06-05T18:54:19.368Z,58.30
2023-06-05T18:56:49.448Z,58.43
2023-06-05T18:59:19.652Z,58.61
2023-06-05T19:01:48.296Z,58.60
2023-06-05T19:04:16.836Z,58.80
2023-06-05T19:06:45.321Z,58.70
2023-06-05T19:09:13.692Z,58.71
2023-06-05T19:11:41.876Z,58.83
2023-06-05T19:14:10.177Z,58.94
2023-06-05T19:16:38.677Z,59.33
2023-06-05T19:19:07.146Z,59.41
2023-06-05T19:21:35.946Z,59.60
2023-06-05T19:24:04.368Z,59.67
2023-06-05T19:26:33.053Z,59.63
2023-06-05T19:29:01.260Z,59.68
2023-06-05T19:31:29.780Z,59.73
2023-06-05T19:33:58.462Z,59.75
2023-06-05T19:36:27.259Z,59.94
2023-06-05T19:38:56.105Z,60.20
2023-06-05T19:41:27.498Z,60.38
2023-06-05T19:43:56.299Z,60.46
2023-06-05T19:46:24.468Z,60.49
2023-06-05T19:48:53.370Z,60.87
2023-06-05T19:51:22.860Z,60.95
2023-06-05T19:53:51.509Z,61.21
2023-06-05T19:56:20.168Z,61.38
2023-06-05T19:58:48.562Z,61.40
2023-06-05T20:01:17.189Z,61.39
2023-06-05T20:03:50.585Z,61.60
2023-06-05T20:06:20.040Z,61.59
2023-06-05T20:08:48.432Z,61.54
2023-06-05T20:11:17.018Z,61.64
2023-06-05T20:13:45.907Z,61.89
2023-06-05T20:16:14.242Z,62.01
2023-06-05T20:18:44.124Z,62.07
2023-06-05T20:21:12.966Z,62.12
2023-06-05T20:23:41.522Z,62.22
2023-06-05T20:26:11.028Z,62.23
2023-06-05T20:28:41.890Z,62.11
2023-06-05T20:31:11.056Z,62.22
2023-06-05T20:33:39.843Z,62.31
2023-06-05T20:36:11.881Z,62.47
2023-06-05T20:38:40.761Z,62.96
2023-06-05T20:41:10.539Z,62.87
2023-06-05T20:43:39.775Z,63.04
2023-06-05T20:46:08.193Z,62.97
2023-06-05T20:48:36.911Z,63.02
2023-06-05T20:51:05.815Z,63.00
2023-06-05T20:53:38.642Z,62.93
2023-06-05T20:56:06.919Z,63.05
2023-06-05T20:58:35.315Z,63.08
2023-06-05T21:01:03.639Z,63.17
2023-06-05T21:03:32.068Z,63.15
2023-06-05T21:06:00.421Z,63.11
2023-06-05T21:08:30.242Z,63.14
2023-06-05T21:10:58.467Z,63.15
2023-06-05T21:13:26.708Z,63.26
2023-06-05T21:15:55.624Z,63.14
2023-06-05T21:18:24.530Z,63.11
2023-06-05T21:20:55.630Z,63.18
2023-06-05T21:23:24.087Z,63.27
2023-06-05T21:25:52.800Z,63.28
2023-06-05T21:28:21.074Z,63.26
2023-06-05T21:30:50.165Z,63.30
2023-06-05T21:33:20.589Z,63.24
2023-06-05T21:35:49.770Z,63.32
2023-06-05T21:38:18.992Z,63.37
2023-06-05T21:40:48.286Z,63.50
2023-06-05T21:43:17.135Z,63.63
2023-06-05T21:45:45.691Z,63.62
2023-06-05T21:48:13.909Z,63.84
2023-06-05T21:50:42.113Z,63.80
2023-06-05T21:53:10.663Z,63.88
2023-06-05T21:55:39.449Z,63.83
2023-06-05T21:58:07.813Z,63.98
2023-06-05T22:00:36.130Z,64.09
2023-06-05T22:03:04.751Z,64.06
2023-06-05T22:05:33.646Z,64.14
2023-06-05T22:08:02.799Z,64.13
2023-06-05T22:10:31.297Z,64.20
2023-06-05T22:12:59.561Z,64.19
2023-06-05T22:15:30.986Z,64.16
2023-06-05T22:17:59.385Z,64.29
2023-06-05T22:20:28.416Z,64.29
2023-06-05T22:22:58.239Z,64.20
2023-06-05T22:25:34.473Z,64.29
2023-06-05T22:28:08.498Z,64.34
2023-06-05T22:30:37.213Z,64.41
2023-06-05T22:33:05.482Z,64.37
2023-06-05T22:35:36.981Z,64.43
2023-06-05T22:38:05.621Z,64.38
2023-06-05T22:40:34.706Z,64.52
2023-06-05T22:43:04.003Z,64.57
2023-06-05T22:45:33.127Z,64.63
2023-06-05T22:48:02.167Z,64.80
2023-06-05T22:50:31.614Z,64.71
2023-06-05T22:53:00.774Z,64.83
2023-06-05T22:55:29.742Z,64.88
2023-06-05T22:58:00.592Z,65.06
2023-06-05T23:00:29.406Z,64.93
2023-06-05T23:02:58.673Z,64.95
2023-06-05T23:05:27.016Z,64.94
2023-06-05T23:07:55.624Z,65.00
2023-06-05T23:10:24.973Z,64.92
2023-06-05T23:12:53.777Z,65.12
2023-06-05T23:17:49.098Z,64.95
2023-06-05T23:20:17.670Z,65.15
2023-06-05T23:22:47.021Z,65.07
2023-06-05T23:25:15.960Z,65.04
2023-06-05T23:27:45.196Z,65.08
2023-06-05T23:30:14.029Z,65.15
2023-06-05T23:32:42.518Z,65.13
2023-06-05T23:35:10.754Z,65.16
2023-06-05T23:37:39.510Z,65.03
2023-06-05T23:40:08.736Z,65.09
2023-06-05T23:42:38.450Z,65.12
2023-06-05T23:45:08.984Z,64.92
2023-06-05T23:47:38.321Z,65.03
2023-06-05T23:50:28.630Z,65.06
2023-06-05T23:52:57.419Z,64.84
2023-06-05T23:55:27.080Z,65.01
2023-06-05T23:57:55.945Z,64.96
